createdAt,value
2023-10-24T00:02:42.575Z,11.08
2023-10-24T00:07:47.121Z,11.15
2023-10-24T00:12:50.407Z,11.05
2023-10-24T00:17:55.162Z,11.07
2023-10-24T00:22:58.644Z,11.06
2023-10-24T00:28:01.910Z,10.99
2023-10-24T00:33:06.657Z,11.04
2023-10-24T00:38:09.967Z,10.95
2023-10-24T00:43:13.621Z,10.89
2023-10-24T00:48:19.514Z,10.74
2023-10-24T00:53:22.860Z,10.85
2023-10-24T00:58:26.375Z,10.82
2023-10-24T01:03:31.193Z,10.93
2023-10-24T01:08:34.576Z,10.93
2023-10-24T01:13:38.123Z,10.79
2023-10-24T01:18:43.052Z,10.87
2023-10-24T01:23:47.722Z,10.80
2023-10-24T01:28:51.116Z,10.86
2023-10-24T01:33:54.384Z,11.15
2023-10-24T01:38:59.177Z,11.47
2023-10-24T01:44:02.351Z,11.56
2023-10-24T01:49:05.844Z,12.14
2023-10-24T01:54:10.550Z,12.16
2023-10-24T01:59:13.758Z,12.11
2023-10-24T02:04:17.056Z,12.10
2023-10-24T02:09:21.765Z,11.96
2023-10-24T02:14:24.949Z,12.29
2023-10-24T02:19:28.324Z,12.51
2023-10-24T02:24:33.789Z,12.32
2023-10-24T02:29:37.079Z,12.16
2023-10-24T02:34:40.489Z,12.51
2023-10-24T02:39:45.443Z,12.36
2023-10-24T02:44:50.399Z,12.36
2023-10-24T02:49:55.696Z,12.29
2023-10-24T02:55:02.061Z,12.51
2023-10-24T03:00:07.030Z,12.58
2023-10-24T03:05:10.754Z,12.68
2023-10-24T03:10:15.602Z,12.55
2023-10-24T03:15:19.046Z,12.59
2023-10-24T03:20:22.455Z,12.47
2023-10-24T03:25:29.470Z,12.40
2023-10-24T03:30:32.706Z,12.55
2023-10-24T03:35:35.897Z,12.42
2023-10-24T03:40:41.973Z,12.53
2023-10-24T03:45:45.812Z,12.43
2023-10-24T03:50:49.206Z,12.26
2023-10-24T03:55:58.375Z,12.27
2023-10-24T04:01:06.321Z,12.37
2023-10-24T04:06:13.187Z,12.26
2023-10-24T04:11:18.315Z,12.26
2023-10-24T04:16:22.057Z,12.17
2023-10-24T04:21:25.418Z,12.27
2023-10-24T04:26:29.967Z,12.48
2023-10-24T04:31:33.276Z,12.78
2023-10-24T04:36:36.672Z,12.48
2023-10-24T04:41:41.411Z,12.51
2023-10-24T04:46:45.305Z,12.29
2023-10-24T04:51:48.510Z,12.35
2023-10-24T04:56:53.023Z,12.20
2023-10-24T05:01:56.384Z,12.25
2023-10-24T05:06:59.959Z,12.11
2023-10-24T05:12:06.233Z,11.95
2023-10-24T05:17:09.544Z,11.90
2023-10-24T05:22:13.140Z,12.02
2023-10-24T05:27:17.769Z,11.92
2023-10-24T05:32:21.104Z,11.88
2023-10-24T05:37:24.470Z,11.79
2023-10-24T05:42:29.226Z,11.88
2023-10-24T05:47:32.477Z,11.85
2023-10-24T05:52:35.818Z,11.83
2023-10-24T05:57:40.545Z,11.80
2023-10-24T06:02:43.787Z,11.75
2023-10-24T06:07:47.115Z,11.93
2023-10-24T06:12:51.790Z,11.89
2023-10-24T06:17:56.635Z,11.91
2023-10-24T06:23:00.034Z,11.91
2023-10-24T06:28:04.922Z,12.02
2023-10-24T06:33:08.102Z,11.95
2023-10-24T06:38:11.716Z,12.12
2023-10-24T06:43:16.996Z,12.19
2023-10-24T06:48:21.090Z,12.11
2023-10-24T06:53:24.370Z,12.12
2023-10-24T06:58:29.307Z,12.37
2023-10-24T07:03:32.772Z,12.38
2023-10-24T07:08:36.072Z,12.48
2023-10-24T07:13:40.874Z,12.60
2023-10-24T07:18:44.428Z,12.67
2023-10-24T07:23:47.549Z,12.77
2023-10-24T07:28:52.421Z,12.91
2023-10-24T07:33:55.712Z,12.92
2023-10-24T07:39:01.569Z,12.79
2023-10-24T07:44:06.971Z,13.06
2023-10-24T07:49:11.157Z,12.95
2023-10-24T07:54:14.597Z,13.23
2023-10-24T07:59:19.686Z,13.28
2023-10-24T08:04:23.459Z,13.37
2023-10-24T08:09:26.809Z,13.55
2023-10-24T08:14:31.486Z,13.84
2023-10-24T08:19:34.884Z,14.20
2023-10-24T08:24:38.372Z,14.20
2023-10-24T08:29:43.361Z,14.29
2023-10-24T08:34:47.166Z,14.31
2023-10-24T08:39:51.165Z,14.29
2023-10-24T08:44:55.850Z,14.36
2023-10-24T08:50:02.012Z,14.55
2023-10-24T08:55:06.571Z,14.64
2023-10-24T09:00:13.367Z,14.77
2023-10-24T09:05:17.003Z,14.79
2023-10-24T09:10:21.509Z,14.90
2023-10-24T09:15:26.284Z,15.19
2023-10-24T09:20:32.190Z,15.28
2023-10-24T09:25:36.253Z,15.36
2023-10-24T09:30:41.646Z,15.15
2023-10-24T09:35:54.802Z,15.10
2023-10-24T09:41:05.367Z,14.90
2023-10-24T09:46:10.185Z,15.08
2023-10-24T09:51:13.966Z,15.15
2023-10-24T09:56:18.921Z,15.40
2023-10-24T10:01:23.817Z,15.44
2023-10-24T10:06:47.464Z,15.27
2023-10-24T10:11:52.770Z,15.24
2023-10-24T10:17:11.156Z,15.41
2023-10-24T10:22:31.500Z,15.48
2023-10-24T10:27:40.160Z,15.95
2023-10-24T10:32:58.615Z,15.88
2023-10-24T10:38:04.786Z,15.59
2023-10-24T10:43:08.092Z,15.52
2023-10-24T10:48:12.931Z,15.46
2023-10-24T10:53:29.306Z,15.49
2023-10-24T10:58:40.479Z,15.94
2023-10-24T11:03:48.775Z,16.03
2023-10-24T11:09:08.949Z,15.90
2023-10-24T11:14:17.089Z,15.66
2023-10-24T11:19:23.348Z,15.65
2023-10-24T11:24:26.536Z,15.57
2023-10-24T11:29:29.885Z,15.53
2023-10-24T11:34:34.555Z,15.36
2023-10-24T11:39:37.996Z,15.45
2023-10-24T11:44:41.885Z,15.31
2023-10-24T11:49:48.073Z,15.13
2023-10-24T11:54:53.933Z,14.97
2023-10-24T11:59:58.309Z,15.02
2023-10-24T12:05:04.272Z,14.87
2023-10-24T12:10:11.502Z,14.64
2023-10-24T12:15:17.019Z,14.42
2023-10-24T12:20:22.188Z,14.53
2023-10-24T12:25:25.440Z,14.61
2023-10-24T12:30:29.518Z,14.63
2023-10-24T12:35:34.215Z,14.50
2023-10-24T12:40:39.231Z,14.32
2023-10-24T12:45:42.581Z,14.05
2023-10-24T12:50:47.359Z,14.15
2023-10-24T12:55:51.184Z,13.98
2023-10-24T13:00:54.844Z,13.80
2023-10-24T13:05:59.773Z,13.87
2023-10-24T13:11:05.123Z,13.92
2023-10-24T13:16:08.710Z,13.59
2023-10-24T13:21:13.734Z,13.76
2023-10-24T13:26:17.770Z,13.49
2023-10-24T13:31:21.328Z,13.48
2023-10-24T13:36:28.510Z,13.54
2023-10-24T13:41:32.791Z,13.47
2023-10-24T13:46:36.388Z,13.41
2023-10-24T13:51:41.242Z,13.39
2023-10-24T13:56:44.637Z,13.17
2023-10-24T14:01:48.422Z,13.39
2023-10-24T14:06:53.505Z,13.37
2023-10-24T14:11:57.156Z,13.36
2023-10-24T14:17:00.876Z,13.34
2023-10-24T14:22:06.084Z,13.37
2023-10-24T14:27:09.844Z,13.23
2023-10-24T14:32:13.609Z,13.37
2023-10-24T14:37:18.738Z,13.34
2023-10-24T14:42:22.532Z,13.25
2023-10-24T14:47:29.923Z,13.31
2023-10-24T14:52:36.923Z,13.31
2023-10-24T14:57:41.005Z,13.39
2023-10-24T15:02:46.369Z,13.24
2023-10-24T15:07:54.086Z,13.34
2023-10-24T15:12:58.793Z,13.27
2023-10-24T15:18:06.642Z,13.20
2023-10-24T15:23:11.595Z,13.08
2023-10-24T15:28:15.237Z,13.18
2023-10-24T15:33:21.611Z,12.92
2023-10-24T15:38:28.316Z,12.99
2023-10-24T15:43:32.046Z,12.89
2023-10-24T15:48:36.567Z,13.02
2023-10-24T15:53:42.507Z,13.06
2023-10-24T15:58:46.613Z,13.03
2023-10-24T16:03:49.957Z,13.05
2023-10-24T16:08:54.765Z,13.07
2023-10-24T16:13:58.417Z,12.89
2023-10-24T16:19:02.172Z,12.83
2023-10-24T16:24:08.117Z,12.96
2023-10-24T16:29:11.809Z,12.92
2023-10-24T16:34:15.292Z,12.78
2023-10-24T16:39:20.341Z,12.82
2023-10-24T16:44:24.104Z,12.88
2023-10-24T16:49:29.742Z,12.80
2023-10-24T16:54:34.752Z,12.76
2023-10-24T16:59:38.527Z,12.52
2023-10-24T17:04:42.398Z,12.61
2023-10-24T17:09:47.515Z,12.50
2023-10-24T17:14:50.946Z,12.32
2023-10-24T17:19:54.698Z,12.15
2023-10-24T17:25:04.745Z,12.45
2023-10-24T17:30:09.876Z,12.50
2023-10-24T17:35:13.678Z,12.56
2023-10-24T17:40:18.721Z,12.58
2023-10-24T17:45:22.217Z,12.54
2023-10-24T17:50:25.871Z,12.49
2023-10-24T17:55:31.333Z,12.52
2023-10-24T18:00:35.508Z,12.60
2023-10-24T18:05:39.628Z,12.57
2023-10-24T18:10:44.665Z,12.46
2023-10-24T18:15:48.068Z,12.47
2023-10-24T18:20:51.370Z,12.51
2023-10-24T18:25:57.038Z,12.42
2023-10-24T18:31:00.656Z,12.44
2023-10-24T18:36:05.878Z,12.43
2023-10-24T18:41:12.051Z,12.38
2023-10-24T18:46:16.139Z,12.34
2023-10-24T18:51:20.709Z,12.32
2023-10-24T18:56:26.924Z,12.31
2023-10-24T19:01:30.848Z,12.28
2023-10-24T19:06:36.477Z,12.26
2023-10-24T19:11:42.522Z,12.21
2023-10-24T19:16:46.687Z,12.10
2023-10-24T19:21:51.277Z,12.02
2023-10-24T19:26:57.589Z,11.98
2023-10-24T19:32:01.636Z,12.08
2023-10-24T19:37:08.542Z,12.13
2023-10-24T19:42:16.422Z,12.16
2023-10-24T19:47:21.824Z,12.09
2023-10-24T19:52:25.677Z,12.14
2023-10-24T19:57:30.832Z,12.14
2023-10-24T20:02:35.040Z,12.03
2023-10-24T20:07:40.269Z,12.05
2023-10-24T20:12:47.012Z,11.83
2023-10-24T20:17:50.974Z,11.88
2023-10-24T20:22:55.225Z,11.97
2023-10-24T20:27:59.978Z,12.03
2023-10-24T20:33:03.281Z,11.99
2023-10-24T20:38:06.480Z,11.91
2023-10-24T20:43:11.345Z,11.81
2023-10-24T20:48:15.482Z,11.81
2023-10-24T20:53:22.992Z,11.71
2023-10-24T20:58:28.510Z,11.33
2023-10-24T21:03:31.875Z,11.25
2023-10-24T21:08:35.401Z,11.09
2023-10-24T21:13:40.496Z,11.03
2023-10-24T21:18:45.179Z,11.01
2023-10-24T21:23:48.706Z,10.92
2023-10-24T21:28:53.376Z,10.84
2023-10-24T21:33:56.965Z,10.82
2023-10-24T21:39:00.302Z,10.82
2023-10-24T21:44:05.269Z,10.74
2023-10-24T21:49:08.909Z,10.44
2023-10-24T21:54:12.465Z,10.48
2023-10-24T21:59:17.065Z,10.41
2023-10-24T22:04:20.393Z,10.16
2023-10-24T22:09:23.874Z,10.01
2023-10-24T22:14:28.693Z,9.86
2023-10-24T22:19:31.865Z,9.75
2023-10-24T22:24:35.206Z,9.46
2023-10-24T22:29:40.284Z,9.29
2023-10-24T22:34:43.717Z,9.08
2023-10-24T22:39:47.193Z,8.84
2023-10-24T22:44:52.028Z,8.82
2023-10-24T22:49:55.397Z,8.66
2023-10-24T22:54:58.769Z,8.62
2023-10-24T23:00:05.636Z,8.53
2023-10-24T23:05:10.017Z,8.31
2023-10-24T23:10:13.456Z,8.08
2023-10-24T23:15:18.411Z,7.99
2023-10-24T23:20:21.776Z,7.79
2023-10-24T23:25:24.996Z,7.68
2023-10-24T23:30:30.853Z,7.45
2023-10-24T23:35:34.162Z,7.50
2023-10-24T23:40:37.427Z,7.53
2023-10-24T23:45:42.285Z,7.47
2023-10-24T23:50:45.527Z,7.42
2023-10-24T23:55:48.908Z,7.38
